createdAt,value
2022-08-28T00:00:19.462Z,7
2022-08-28T00:05:20.165Z,8
2022-08-28T00:10:19.550Z,8
2022-08-28T00:15:20.071Z,8
2022-08-28T00:20:20.165Z,7
2022-08-28T00:25:20.345Z,8
2022-08-28T00:30:20.159Z,8
2022-08-28T00:35:20.156Z,9
2022-08-28T00:40:20.055Z,8
2022-08-28T00:45:19.582Z,8
2022-08-28T00:50:19.655Z,7
2022-08-28T00:55:20.358Z,8
2022-08-28T01:00:20.088Z,8
2022-08-28T01:05:20.095Z,8
2022-08-28T01:10:20.122Z,9
2022-08-28T01:15:20.757Z,10
2022-08-28T01:20:20.146Z,9
2022-08-28T01:25:20.739Z,8
2022-08-28T01:30:20.363Z,9
2022-08-28T01:35:19.649Z,10
2022-08-28T01:40:20.217Z,8
2022-08-28T01:45:19.682Z,8
2022-08-28T01:50:20.169Z,8
2022-08-28T01:55:20.507Z,8
2022-08-28T02:00:20.314Z,8
2022-08-28T02:05:20.250Z,8
2022-08-28T02:10:20.306Z,9
2022-08-28T02:15:20.378Z,8
2022-08-28T02:20:19.765Z,9
2022-08-28T02:25:19.788Z,10
2022-08-28T02:30:20.286Z,9
2022-08-28T02:35:20.356Z,8
2022-08-28T02:40:20.386Z,8
2022-08-28T02:45:34.943Z,7
2022-08-28T02:50:19.767Z,8
2022-08-28T02:55:20.362Z,9
2022-08-28T03:00:20.337Z,10
2022-08-28T03:05:20.948Z,8
2022-08-28T03:10:19.849Z,8
2022-08-28T03:15:20.482Z,9
2022-08-28T03:20:20.342Z,8
2022-08-28T03:25:20.444Z,9
2022-08-28T03:30:19.877Z,8
2022-08-28T03:35:20.764Z,9
2022-08-28T03:40:20.482Z,9
2022-08-28T03:45:20.480Z,9
2022-08-28T03:50:19.951Z,10
2022-08-28T03:55:21.028Z,9
2022-08-28T04:00:20.524Z,10
2022-08-28T04:05:19.916Z,10
2022-08-28T04:10:19.913Z,10
2022-08-28T04:15:20.565Z,9
2022-08-28T04:20:19.948Z,10
2022-08-28T04:25:20.672Z,11
2022-08-28T04:30:20.581Z,11
2022-08-28T04:35:20.176Z,11
2022-08-28T04:40:20.668Z,11
2022-08-28T04:45:20.255Z,12
2022-08-28T04:50:20.013Z,11
2022-08-28T04:55:27.901Z,12
2022-08-28T05:00:20.013Z,12
2022-08-28T05:05:20.043Z,12
2022-08-28T05:10:20.080Z,12
2022-08-28T05:15:20.096Z,12
2022-08-28T05:20:20.583Z,12
2022-08-28T05:25:20.064Z,12
2022-08-28T05:30:20.111Z,14
2022-08-28T05:35:20.751Z,13
2022-08-28T05:40:20.752Z,13
2022-08-28T05:45:20.138Z,13
2022-08-28T05:50:20.772Z,14
2022-08-28T05:55:20.647Z,17
2022-08-28T06:00:20.750Z,14
2022-08-28T06:05:20.655Z,13
2022-08-28T06:10:20.894Z,13
2022-08-28T06:15:20.722Z,14
2022-08-28T06:20:20.811Z,13
2022-08-28T06:25:20.837Z,12
2022-08-28T06:30:20.755Z,12
2022-08-28T06:35:21.552Z,11
2022-08-28T06:40:20.782Z,13
2022-08-28T06:45:20.232Z,15
2022-08-28T06:50:20.353Z,13
2022-08-28T06:55:20.783Z,15
2022-08-28T07:00:20.320Z,16
2022-08-28T07:05:20.791Z,15
2022-08-28T07:10:20.792Z,14
2022-08-28T07:15:20.793Z,16
2022-08-28T07:20:20.388Z,16
2022-08-28T07:25:20.806Z,16
2022-08-28T07:30:20.940Z,16
2022-08-28T07:35:20.966Z,16
2022-08-28T07:40:20.456Z,16
2022-08-28T07:45:20.442Z,16
2022-08-28T07:50:20.452Z,16
2022-08-28T07:55:20.986Z,17
2022-08-28T08:00:21.030Z,15
2022-08-28T08:05:20.417Z,17
2022-08-28T08:10:20.637Z,15
2022-08-28T08:15:20.412Z,13
2022-08-28T08:20:20.425Z,13
2022-08-28T08:25:21.218Z,13
2022-08-28T08:30:21.054Z,14
2022-08-28T08:35:20.519Z,13
2022-08-28T08:40:20.524Z,12
2022-08-28T08:45:20.466Z,11
2022-08-28T08:50:20.508Z,11
2022-08-28T08:55:21.118Z,10
2022-08-28T09:00:21.120Z,11
2022-08-28T09:05:20.998Z,10
2022-08-28T09:10:21.137Z,10
2022-08-28T09:15:21.192Z,8
2022-08-28T09:20:21.357Z,7
2022-08-28T09:25:21.159Z,8
2022-08-28T09:30:21.054Z,8
2022-08-28T09:35:21.152Z,8
2022-08-28T09:40:21.280Z,8
2022-08-28T09:45:20.610Z,7
2022-08-28T09:50:21.209Z,8
2022-08-28T09:55:21.209Z,7
2022-08-28T10:00:20.660Z,7
2022-08-28T10:05:21.327Z,8
2022-08-28T10:10:21.144Z,8
2022-08-28T10:15:21.153Z,9
2022-08-28T10:20:20.666Z,9
2022-08-28T10:25:20.661Z,8
2022-08-28T10:30:20.691Z,9
2022-08-28T10:35:20.696Z,10
2022-08-28T10:40:21.268Z,8
2022-08-28T10:45:20.807Z,8
2022-08-28T10:50:20.713Z,9
2022-08-28T10:55:20.709Z,8
2022-08-28T11:00:20.763Z,8
2022-08-28T11:05:21.247Z,8
2022-08-28T11:10:21.249Z,8
2022-08-28T11:15:21.306Z,7
2022-08-28T11:20:21.317Z,8
2022-08-28T11:25:26.180Z,8
2022-08-28T11:30:21.320Z,8
2022-08-28T11:35:21.353Z,8
2022-08-28T11:40:21.385Z,9
2022-08-28T11:45:20.805Z,7
2022-08-28T11:50:20.809Z,7
2022-08-28T11:55:21.335Z,8
2022-08-28T12:00:20.863Z,8
2022-08-28T12:05:21.455Z,9
2022-08-28T12:10:21.495Z,7
2022-08-28T12:15:21.155Z,8
2022-08-28T12:20:21.499Z,8
2022-08-28T12:25:21.419Z,8
2022-08-28T12:30:21.999Z,9
2022-08-28T12:35:21.429Z,7
2022-08-28T12:40:21.461Z,8
2022-08-28T12:45:20.951Z,8
2022-08-28T12:50:21.445Z,7
2022-08-28T12:55:24.422Z,9
2022-08-28T13:00:21.477Z,7
2022-08-28T13:05:21.653Z,9
2022-08-28T13:10:21.509Z,9
2022-08-28T13:15:24.204Z,9
2022-08-28T13:20:21.530Z,8
2022-08-28T13:25:21.525Z,8
2022-08-28T13:30:22.167Z,8
2022-08-28T13:35:21.558Z,8
2022-08-28T13:40:53.770Z,8
2022-08-28T13:45:21.083Z,7
2022-08-28T13:50:21.052Z,8
2022-08-28T13:55:21.136Z,9
2022-08-28T14:00:21.617Z,8
2022-08-28T14:05:21.638Z,8
2022-08-28T14:10:22.291Z,8
2022-08-28T14:15:21.091Z,7
2022-08-28T14:20:21.162Z,7
2022-08-28T14:25:21.718Z,7
2022-08-28T14:30:21.674Z,8
2022-08-28T14:35:21.182Z,7
2022-08-28T14:40:21.703Z,7
2022-08-28T14:45:21.172Z,7
2022-08-28T14:50:21.209Z,7
2022-08-28T14:55:22.294Z,8
2022-08-28T15:00:21.730Z,7
2022-08-28T15:05:21.209Z,7
2022-08-28T15:10:21.884Z,7
2022-08-28T15:15:21.255Z,6
2022-08-28T15:20:22.344Z,7
2022-08-28T15:25:21.782Z,7
2022-08-28T15:30:21.778Z,7
2022-08-28T15:35:21.258Z,7
2022-08-28T15:40:21.321Z,7
2022-08-28T15:45:21.826Z,7
2022-08-28T15:50:21.301Z,6
2022-08-28T15:55:21.942Z,7
2022-08-28T16:00:21.840Z,6
2022-08-28T16:05:21.854Z,7
2022-08-28T16:10:21.833Z,6
2022-08-28T16:15:21.555Z,6
2022-08-28T16:20:21.430Z,6
2022-08-28T16:25:22.489Z,6
2022-08-28T16:30:21.369Z,7
2022-08-28T16:35:21.894Z,6
2022-08-28T16:40:21.462Z,6
2022-08-28T16:45:21.412Z,6
2022-08-28T16:50:21.411Z,7
2022-08-28T16:55:21.417Z,7
2022-08-28T17:00:21.968Z,7
2022-08-28T17:05:21.438Z,7
2022-08-28T17:10:21.448Z,7
2022-08-28T17:15:21.447Z,6
2022-08-28T17:20:22.016Z,6
2022-08-28T17:25:22.052Z,8
2022-08-28T17:30:21.996Z,7
2022-08-28T17:35:22.027Z,7
2022-08-28T17:40:22.086Z,7
2022-08-28T17:45:21.567Z,7
2022-08-28T17:50:21.540Z,8
2022-08-28T17:55:22.071Z,7
2022-08-28T18:00:21.555Z,7
2022-08-28T18:05:22.063Z,7
2022-08-28T18:10:22.803Z,7
2022-08-28T18:15:21.570Z,8
2022-08-28T18:20:22.095Z,7
2022-08-28T18:25:22.205Z,7
2022-08-28T18:30:22.207Z,8
2022-08-28T18:35:30.396Z,7
2022-08-28T18:40:22.263Z,7
2022-08-28T18:45:27.093Z,6
2022-08-28T18:50:27.664Z,8
2022-08-28T18:55:21.714Z,7
2022-08-28T19:00:22.238Z,7
2022-08-28T19:05:22.193Z,8
2022-08-28T19:10:33.226Z,8
2022-08-28T19:15:21.677Z,8
2022-08-28T19:20:22.317Z,7
2022-08-28T19:25:22.450Z,9
2022-08-28T19:30:22.406Z,8
2022-08-28T19:35:24.373Z,9
2022-08-28T19:40:21.810Z,8
2022-08-28T19:45:21.760Z,8
2022-08-28T19:50:21.834Z,8
2022-08-28T19:55:22.495Z,8
2022-08-28T20:00:23.020Z,8
2022-08-28T20:05:22.375Z,8
2022-08-28T20:10:22.310Z,8
2022-08-28T20:15:21.799Z,9
2022-08-28T20:20:24.650Z,9
2022-08-28T20:25:22.327Z,8
2022-08-28T20:30:22.359Z,8
2022-08-28T20:35:22.443Z,9
2022-08-28T20:40:22.387Z,9
2022-08-28T20:45:21.852Z,9
2022-08-28T20:50:22.429Z,8
2022-08-28T20:55:22.391Z,8
2022-08-28T21:00:22.423Z,9
2022-08-28T21:05:21.979Z,10
2022-08-28T21:10:22.006Z,9
2022-08-28T21:15:21.970Z,8
2022-08-28T21:20:22.523Z,9
2022-08-28T21:25:23.200Z,9
2022-08-28T21:30:23.147Z,8
2022-08-28T21:35:21.976Z,9
2022-08-28T21:40:22.697Z,9
2022-08-28T21:45:21.987Z,9
2022-08-28T21:50:22.604Z,8
2022-08-28T21:55:22.618Z,9
2022-08-28T22:00:22.528Z,9
2022-08-28T22:05:23.141Z,9
2022-08-28T22:10:22.621Z,8
2022-08-28T22:15:22.530Z,8
2022-08-28T22:20:23.159Z,8
2022-08-28T22:25:22.580Z,9
2022-08-28T22:30:22.064Z,9
2022-08-28T22:35:22.686Z,8
2022-08-28T22:40:22.734Z,8
2022-08-28T22:45:22.612Z,9
2022-08-28T22:50:22.098Z,9
2022-08-28T22:55:22.632Z,8
2022-08-28T23:00:22.715Z,9
2022-08-28T23:05:22.750Z,9
2022-08-28T23:10:32.214Z,8
2022-08-28T23:15:22.743Z,8
2022-08-28T23:20:22.670Z,9
2022-08-28T23:25:22.688Z,8
2022-08-28T23:30:22.207Z,9
2022-08-28T23:35:22.713Z,8
2022-08-28T23:40:22.811Z,8
2022-08-28T23:45:22.269Z,8
2022-08-28T23:50:22.281Z,8
2022-08-28T23:55:22.851Z,8
